Aviation Digital Data Service (ADDS)

Output produced by METARs form (0205 UTC 24 October 2019)
found at http://www.aviationweather.gov/metar/data/
 
Forecast for: VIDP (INDIRA GANDHI/DE, IN)
Text: TAF VIDP 240200Z 2403/2412 VRB02KT 1500 BR NSC
Forecast period: 0300 to 0600 UTC 24 October 2019
Forecast type: FROM: standard forecast or significant change
Winds: variable direction winds at 2 MPH (2 knots; 1.0 m/s)
Visibility: 0.93 miles (1.50 km)
Ceiling: unknown
Clouds: missing
Weather: BR  (mist)
Text: BECMG 2406/2408 11006KT 3000 HZ FEW100
Forecast period: 0600 to 1200 UTC 24 October 2019
Forecast type: BECOMING: Conditions expected to become as follows by 0800 UTC 24 October 2019
Winds: from the ESE (110 degrees) at 7 MPH (6 knots; 3.1 m/s)
Visibility: 1.86 miles (2.99 km)
Ceiling: at least 12,000 feet AGL
Clouds: few clouds at 10000 feet AGL
Weather: HZ  (haze)